createdAt,value
2022-08-11T00:00:19.719Z,997.76
2022-08-11T00:01:19.726Z,997.77
2022-08-11T00:02:19.753Z,997.78
2022-08-11T00:03:19.811Z,997.77
2022-08-11T00:04:19.748Z,997.78
2022-08-11T00:05:19.729Z,997.71
2022-08-11T00:06:19.729Z,997.74
2022-08-11T00:07:19.743Z,997.73
2022-08-11T00:08:19.728Z,997.72
2022-08-11T00:09:19.774Z,997.69
2022-08-11T00:10:19.726Z,997.77
2022-08-11T00:11:19.744Z,997.76
2022-08-11T00:12:19.739Z,997.69
2022-08-11T00:13:19.739Z,997.69
2022-08-11T00:14:19.744Z,997.68
2022-08-11T00:15:19.746Z,997.74
2022-08-11T00:16:19.743Z,997.66
2022-08-11T00:17:19.769Z,997.71
2022-08-11T00:18:19.740Z,997.77
2022-08-11T00:19:19.744Z,997.71
2022-08-11T00:20:19.762Z,997.77
2022-08-11T00:21:19.756Z,997.74
2022-08-11T00:22:19.757Z,997.71
2022-08-11T00:23:19.848Z,997.77
2022-08-11T00:24:19.768Z,997.80
2022-08-11T00:25:19.766Z,997.79
2022-08-11T00:26:19.775Z,997.81
2022-08-11T00:27:19.760Z,997.78
2022-08-11T00:28:19.760Z,997.84
2022-08-11T00:29:19.779Z,997.83
2022-08-11T00:30:19.774Z,997.82
2022-08-11T00:31:19.776Z,997.87
2022-08-11T00:32:19.770Z,997.83
2022-08-11T00:33:19.759Z,997.87
2022-08-11T00:34:19.773Z,997.87
2022-08-11T00:35:54.468Z,997.93
2022-08-11T00:36:24.891Z,997.89
2022-08-11T00:37:19.771Z,997.85
2022-08-11T00:38:19.790Z,997.89
2022-08-11T00:39:19.821Z,997.97
2022-08-11T00:40:19.789Z,997.95
2022-08-11T00:41:19.770Z,997.86
2022-08-11T00:42:19.782Z,997.90
2022-08-11T00:43:20.712Z,997.93
2022-08-11T00:44:19.790Z,997.93
2022-08-11T00:45:19.780Z,997.90
2022-08-11T00:46:19.799Z,997.84
2022-08-11T00:47:19.795Z,997.87
2022-08-11T00:48:19.782Z,997.85
2022-08-11T00:49:19.797Z,997.81
2022-08-11T00:50:19.788Z,997.86
2022-08-11T00:51:19.801Z,997.86
2022-08-11T00:52:19.802Z,997.83
2022-08-11T00:53:19.805Z,997.84
2022-08-11T00:54:19.808Z,997.86
2022-08-11T00:55:19.791Z,997.82
2022-08-11T00:56:19.780Z,997.85
2022-08-11T00:57:36.628Z,997.86
2022-08-11T00:58:21.870Z,997.82
2022-08-11T00:59:35.587Z,997.82
2022-08-11T01:00:19.804Z,997.86
2022-08-11T01:01:19.888Z,997.80
2022-08-11T01:02:19.813Z,997.84
2022-08-11T01:03:19.848Z,997.88
2022-08-11T01:04:19.813Z,997.96
2022-08-11T01:05:19.820Z,997.96
2022-08-11T01:06:19.804Z,997.87
2022-08-11T01:08:02.433Z,997.87
2022-08-11T01:08:19.826Z,997.82
2022-08-11T01:09:22.227Z,997.84
2022-08-11T01:10:19.863Z,997.85
2022-08-11T01:11:19.843Z,997.94
2022-08-11T01:12:19.850Z,997.91
2022-08-11T01:13:19.852Z,997.94
2022-08-11T01:14:33.950Z,997.99
2022-08-11T01:15:19.851Z,997.89
2022-08-11T01:16:19.867Z,997.88
2022-08-11T01:17:19.857Z,997.94
2022-08-11T01:18:19.863Z,997.88
2022-08-11T01:19:19.852Z,997.89
2022-08-11T01:20:47.464Z,997.92
2022-08-11T01:21:19.863Z,997.91
2022-08-11T01:22:19.851Z,997.90
2022-08-11T01:23:19.854Z,997.98
2022-08-11T01:24:19.853Z,998.02
2022-08-11T01:25:19.847Z,998.04
2022-08-11T01:26:19.850Z,997.96
2022-08-11T01:27:20.115Z,997.98
2022-08-11T01:28:19.836Z,998.00
2022-08-11T01:29:19.860Z,997.98
2022-08-11T01:30:19.854Z,997.99
2022-08-11T01:31:19.851Z,998.01
2022-08-11T01:32:19.843Z,998.00
2022-08-11T01:33:19.898Z,998.01
2022-08-11T01:34:19.864Z,997.96
2022-08-11T01:35:19.855Z,997.97
2022-08-11T01:36:19.862Z,997.92
2022-08-11T01:37:19.851Z,998.00
2022-08-11T01:38:19.860Z,997.92
2022-08-11T01:39:19.937Z,997.95
2022-08-11T01:40:19.865Z,997.97
2022-08-11T01:41:19.865Z,997.99
2022-08-11T01:42:19.868Z,997.95
2022-08-11T01:43:19.890Z,998.00
2022-08-11T01:44:19.894Z,997.95
2022-08-11T01:45:19.922Z,997.98
2022-08-11T01:46:19.908Z,998.01
2022-08-11T01:47:19.928Z,997.97
2022-08-11T01:48:19.960Z,998.02
2022-08-11T01:50:06.409Z,997.96
2022-08-11T01:50:19.964Z,998.04
2022-08-11T01:51:19.949Z,997.99
2022-08-11T01:52:19.966Z,998.03
2022-08-11T01:53:19.945Z,997.96
2022-08-11T01:54:19.972Z,998.00
2022-08-11T01:55:19.954Z,997.99
2022-08-11T01:56:19.959Z,997.97
2022-08-11T01:57:19.968Z,998.11
2022-08-11T01:58:19.945Z,998.03
2022-08-11T01:59:19.975Z,998.13
2022-08-11T02:00:19.965Z,998.07
2022-08-11T02:01:20.018Z,998.08
2022-08-11T02:02:21.521Z,998.11
2022-08-11T02:03:19.986Z,998.17
2022-08-11T02:04:19.975Z,998.08
2022-08-11T02:05:19.978Z,998.09
2022-08-11T02:06:19.974Z,998.08
2022-08-11T02:07:19.976Z,998.08
2022-08-11T02:08:19.976Z,998.10
2022-08-11T02:09:19.992Z,998.13
2022-08-11T02:10:19.983Z,998.11
2022-08-11T02:11:19.984Z,998.11
2022-08-11T02:12:19.978Z,998.13
2022-08-11T02:13:35.374Z,998.13
2022-08-11T02:14:19.986Z,998.14
2022-08-11T02:15:20.009Z,998.10
2022-08-11T02:16:20.039Z,998.17
2022-08-11T02:17:19.997Z,998.14
2022-08-11T02:18:19.990Z,998.06
2022-08-11T02:19:19.982Z,998.12
2022-08-11T02:20:19.993Z,998.09
2022-08-11T02:21:19.983Z,998.03
2022-08-11T02:22:19.992Z,998.11
2022-08-11T02:23:58.743Z,998.11
2022-08-11T02:24:19.997Z,998.10
2022-08-11T02:25:19.992Z,998.12
2022-08-11T02:26:19.992Z,998.20
2022-08-11T02:27:19.988Z,998.21
2022-08-11T02:28:19.998Z,998.26
2022-08-11T02:29:20.024Z,998.23
2022-08-11T02:30:20.003Z,998.24
2022-08-11T02:32:25.881Z,998.27
2022-08-11T02:32:29.786Z,998.19
2022-08-11T02:33:19.994Z,998.31
2022-08-11T02:34:20.001Z,998.30
2022-08-11T02:35:20.013Z,998.27
2022-08-11T02:36:20.019Z,998.21
2022-08-11T02:37:23.530Z,998.15
2022-08-11T02:38:20.030Z,998.26
2022-08-11T02:39:20.056Z,998.26
2022-08-11T02:40:20.036Z,998.22
2022-08-11T02:41:20.091Z,998.22
2022-08-11T02:42:42.387Z,998.21
2022-08-11T02:43:20.029Z,998.26
2022-08-11T02:44:20.030Z,998.23
2022-08-11T02:45:20.028Z,998.24
2022-08-11T02:46:20.023Z,998.23
2022-08-11T02:47:20.021Z,998.21
2022-08-11T02:48:20.020Z,998.23
2022-08-11T02:49:20.031Z,998.33
2022-08-11T02:50:20.038Z,998.30
2022-08-11T02:51:22.101Z,998.27
2022-08-11T02:52:20.033Z,998.29
2022-08-11T02:53:20.035Z,998.21
2022-08-11T02:55:48.841Z,998.24
2022-08-11T02:56:20.028Z,998.20
2022-08-11T02:57:20.044Z,998.14
2022-08-11T02:58:22.103Z,998.19
2022-08-11T02:59:20.056Z,998.21
2022-08-11T03:01:20.098Z,998.17
2022-08-11T03:02:20.042Z,998.24
2022-08-11T03:03:20.041Z,998.26
2022-08-11T03:04:20.040Z,998.21
2022-08-11T03:06:20.030Z,998.25
2022-08-11T03:07:28.638Z,998.24
2022-08-11T03:08:20.028Z,998.21
2022-08-11T03:09:20.051Z,998.15
2022-08-11T03:11:20.046Z,998.26
2022-08-11T03:12:20.053Z,998.21
2022-08-11T03:13:20.068Z,998.22
2022-08-11T03:14:20.053Z,998.13
2022-08-11T03:16:20.051Z,998.16
2022-08-11T03:17:20.045Z,998.19
2022-08-11T03:18:20.070Z,998.16
2022-08-11T03:19:20.104Z,998.20
2022-08-11T03:21:20.068Z,998.11
2022-08-11T03:22:20.053Z,998.14
2022-08-11T03:23:20.643Z,998.11
2022-08-11T03:24:20.056Z,998.16
2022-08-11T03:26:20.055Z,998.10
2022-08-11T03:27:20.077Z,998.07
2022-08-11T03:28:20.068Z,998.05
2022-08-11T03:29:25.219Z,998.03
2022-08-11T03:31:20.071Z,998.07
2022-08-11T03:32:20.069Z,998.05
2022-08-11T03:33:20.072Z,998.07
2022-08-11T03:34:20.063Z,998.01
2022-08-11T03:36:20.082Z,998.16
2022-08-11T03:37:20.089Z,998.14
2022-08-11T03:38:20.076Z,998.17
2022-08-11T03:39:20.141Z,998.24
2022-08-11T03:41:50.037Z,998.20
2022-08-11T03:42:20.076Z,998.18
2022-08-11T03:43:20.098Z,998.20
2022-08-11T03:44:20.071Z,998.29
2022-08-11T03:45:20.093Z,998.17
2022-08-11T03:47:20.079Z,998.24
2022-08-11T03:48:20.083Z,998.24
2022-08-11T03:49:20.088Z,998.29
2022-08-11T03:50:20.103Z,998.27
2022-08-11T03:52:20.104Z,998.18
2022-08-11T03:53:20.107Z,998.20
2022-08-11T03:54:20.091Z,998.28
2022-08-11T03:55:20.094Z,998.23
2022-08-11T03:57:20.108Z,998.35
2022-08-11T03:58:20.101Z,998.32
2022-08-11T03:59:20.103Z,998.28
2022-08-11T04:00:20.105Z,998.30
2022-08-11T04:02:20.113Z,998.22
2022-08-11T04:03:20.115Z,998.28
2022-08-11T04:04:20.119Z,998.23
2022-08-11T04:05:20.106Z,998.26
2022-08-11T04:07:20.147Z,998.30
2022-08-11T04:08:20.108Z,998.24
2022-08-11T04:09:20.123Z,998.23
2022-08-11T04:10:20.134Z,998.20
2022-08-11T04:12:36.469Z,998.34
2022-08-11T04:13:20.142Z,998.30
2022-08-11T04:14:20.113Z,998.27
2022-08-11T04:15:20.122Z,998.31
2022-08-11T04:17:22.713Z,998.30
2022-08-11T04:18:20.117Z,998.39
2022-08-11T04:19:20.134Z,998.25
2022-08-11T04:20:20.122Z,998.28
2022-08-11T04:22:20.136Z,998.34
2022-08-11T04:24:35.793Z,998.36
2022-08-11T04:24:38.205Z,998.29
2022-08-11T04:25:20.151Z,998.32
2022-08-11T04:27:20.143Z,998.25
2022-08-11T04:28:28.908Z,998.28
2022-08-11T04:29:20.134Z,998.29
2022-08-11T04:30:20.138Z,998.28
2022-08-11T04:32:20.142Z,998.32
2022-08-11T04:33:20.156Z,998.31
2022-08-11T04:34:20.137Z,998.31
2022-08-11T04:35:20.137Z,998.35
2022-08-11T04:37:20.143Z,998.32
2022-08-11T04:38:20.156Z,998.30
2022-08-11T04:39:20.325Z,998.34
2022-08-11T04:40:20.167Z,998.31
2022-08-11T04:42:20.151Z,998.33
2022-08-11T04:43:20.148Z,998.32
2022-08-11T04:44:20.163Z,998.26
2022-08-11T04:45:20.170Z,998.28
2022-08-11T04:47:20.153Z,998.33
2022-08-11T04:48:20.151Z,998.40
2022-08-11T04:49:25.538Z,998.28
2022-08-11T04:50:20.168Z,998.37
2022-08-11T04:52:20.214Z,998.31
2022-08-11T04:53:20.158Z,998.36
2022-08-11T04:54:22.217Z,998.29
2022-08-11T04:55:20.168Z,998.31
2022-08-11T04:57:20.179Z,998.34
2022-08-11T04:58:20.171Z,998.40
2022-08-11T04:59:20.168Z,998.39
2022-08-11T05:00:20.170Z,998.38
2022-08-11T05:02:20.219Z,998.40
2022-08-11T05:03:20.169Z,998.44
2022-08-11T05:04:20.185Z,998.47
2022-08-11T05:05:20.201Z,998.47
2022-08-11T05:07:20.178Z,998.45
2022-08-11T05:08:23.843Z,998.37
2022-08-11T05:09:20.186Z,998.43
2022-08-11T05:10:20.166Z,998.44
2022-08-11T05:12:20.180Z,998.53
2022-08-11T05:13:20.183Z,998.43
2022-08-11T05:14:20.177Z,998.51
2022-08-11T05:15:20.208Z,998.49
2022-08-11T05:17:20.189Z,998.55
2022-08-11T05:18:20.193Z,998.51
2022-08-11T05:19:20.182Z,998.54
2022-08-11T05:20:20.186Z,998.56
2022-08-11T05:22:20.196Z,998.57
2022-08-11T05:23:20.204Z,998.53
2022-08-11T05:24:20.212Z,998.53
2022-08-11T05:26:42.595Z,998.57
2022-08-11T05:27:20.218Z,998.57
2022-08-11T05:28:20.209Z,998.63
2022-08-11T05:29:20.939Z,998.63
2022-08-11T05:30:20.188Z,998.52
2022-08-11T05:32:20.207Z,998.61
2022-08-11T05:33:20.208Z,998.55
2022-08-11T05:34:20.213Z,998.57
2022-08-11T05:36:02.399Z,998.63
2022-08-11T05:37:26.669Z,998.56
2022-08-11T05:38:20.229Z,998.55
2022-08-11T05:39:20.232Z,998.57
2022-08-11T05:40:20.215Z,998.63
2022-08-11T05:42:20.855Z,998.66
2022-08-11T05:43:20.224Z,998.60
2022-08-11T05:44:22.237Z,998.59
2022-08-11T05:45:20.224Z,998.63
2022-08-11T05:47:20.207Z,998.56
2022-08-11T05:48:20.232Z,998.58
2022-08-11T05:49:20.222Z,998.58
2022-08-11T05:50:30.991Z,998.61
2022-08-11T05:52:20.233Z,998.58
2022-08-11T05:53:20.248Z,998.57
2022-08-11T05:54:28.545Z,998.63
2022-08-11T05:55:20.250Z,998.63
2022-08-11T05:57:48.317Z,998.65
2022-08-11T05:58:20.240Z,998.64
2022-08-11T05:59:20.234Z,998.66
2022-08-11T06:00:20.253Z,998.62
2022-08-11T06:02:20.247Z,998.67
2022-08-11T06:03:20.245Z,998.65
2022-08-11T06:04:20.243Z,998.67
2022-08-11T06:05:20.233Z,998.64
2022-08-11T06:07:20.244Z,998.64
2022-08-11T06:08:20.246Z,998.63
2022-08-11T06:09:20.257Z,998.64
2022-08-11T06:10:20.250Z,998.67
2022-08-11T06:12:20.250Z,998.59
2022-08-11T06:13:20.283Z,998.62
2022-08-11T06:14:20.260Z,998.62
2022-08-11T06:15:20.255Z,998.56
2022-08-11T06:17:20.256Z,998.56
2022-08-11T06:18:20.309Z,998.63
2022-08-11T06:19:20.301Z,998.63
2022-08-11T06:20:20.264Z,998.62
2022-08-11T06:22:20.271Z,998.56
2022-08-11T06:23:20.287Z,998.58
2022-08-11T06:24:20.283Z,998.61
2022-08-11T06:25:20.273Z,998.57
2022-08-11T06:27:20.264Z,998.57
2022-08-11T06:28:21.099Z,998.65
2022-08-11T06:29:20.280Z,998.59
2022-08-11T06:30:20.297Z,998.60
2022-08-11T06:32:20.279Z,998.52
2022-08-11T06:33:20.282Z,998.61
2022-08-11T06:34:27.425Z,998.57
2022-08-11T06:35:20.274Z,998.59
2022-08-11T06:37:20.279Z,998.55
2022-08-11T06:38:20.288Z,998.62
2022-08-11T06:39:20.440Z,998.57
2022-08-11T06:40:20.336Z,998.59
2022-08-11T06:42:20.290Z,998.52
2022-08-11T06:43:20.313Z,998.58
2022-08-11T06:44:20.280Z,998.56
2022-08-11T06:45:20.298Z,998.55
2022-08-11T06:47:20.291Z,998.53
2022-08-11T06:48:20.299Z,998.54
2022-08-11T06:49:20.304Z,998.63
2022-08-11T06:50:20.291Z,998.55
2022-08-11T06:52:41.225Z,998.55
2022-08-11T06:53:20.310Z,998.58
2022-08-11T06:54:20.297Z,998.60
2022-08-11T06:55:56.858Z,998.59
2022-08-11T06:57:30.705Z,998.54
2022-08-11T06:58:20.318Z,998.56
2022-08-11T06:59:20.314Z,998.57
2022-08-11T07:00:20.352Z,998.48
2022-08-11T07:02:20.312Z,998.54
2022-08-11T07:03:20.322Z,998.43
2022-08-11T07:04:20.332Z,998.51
2022-08-11T07:05:20.312Z,998.43
2022-08-11T07:07:20.328Z,998.44
2022-08-11T07:08:34.040Z,998.39
2022-08-11T07:09:20.324Z,998.49
2022-08-11T07:10:20.330Z,998.43
2022-08-11T07:12:20.326Z,998.45
2022-08-11T07:13:44.461Z,998.45
2022-08-11T07:14:20.341Z,998.37
2022-08-11T07:15:20.332Z,998.36
2022-08-11T07:17:20.333Z,998.33
2022-08-11T07:18:20.364Z,998.44
2022-08-11T07:19:20.334Z,998.34
2022-08-11T07:20:20.328Z,998.39
2022-08-11T07:22:20.960Z,998.43
2022-08-11T07:23:20.383Z,998.42
2022-08-11T07:24:20.351Z,998.49
2022-08-11T07:25:20.345Z,998.42
2022-08-11T07:27:20.343Z,998.36
2022-08-11T07:28:20.354Z,998.36
2022-08-11T07:29:20.349Z,998.36
2022-08-11T07:30:20.335Z,998.37
2022-08-11T07:32:20.350Z,998.39
2022-08-11T07:34:05.045Z,998.36
2022-08-11T07:34:20.362Z,998.32
2022-08-11T07:35:20.376Z,998.37
2022-08-11T07:36:20.354Z,998.32
2022-08-11T07:38:22.834Z,998.22
2022-08-11T07:39:20.403Z,998.30
2022-08-11T07:40:20.367Z,998.25
2022-08-11T07:41:20.362Z,998.16
2022-08-11T07:43:20.380Z,998.18
2022-08-11T07:44:20.396Z,998.19
2022-08-11T07:45:20.391Z,998.19
2022-08-11T07:46:20.362Z,998.27
2022-08-11T07:48:20.388Z,998.18
2022-08-11T07:49:20.374Z,998.24
2022-08-11T07:50:20.383Z,998.23
2022-08-11T07:51:20.383Z,998.27
2022-08-11T07:53:20.382Z,998.19
2022-08-11T07:54:20.391Z,998.14
2022-08-11T07:55:20.407Z,998.17
2022-08-11T07:56:21.860Z,998.19
2022-08-11T07:58:20.464Z,998.16
2022-08-11T07:59:20.403Z,998.05
2022-08-11T08:00:20.384Z,998.14
2022-08-11T08:01:22.276Z,998.13
2022-08-11T08:03:20.397Z,998.18
2022-08-11T08:04:20.406Z,998.26
2022-08-11T08:05:20.386Z,998.20
2022-08-11T08:06:36.296Z,998.23
2022-08-11T08:08:20.404Z,998.15
2022-08-11T08:09:20.410Z,998.13
2022-08-11T08:10:20.412Z,998.08
2022-08-11T08:11:27.160Z,998.15
2022-08-11T08:13:20.417Z,998.12
2022-08-11T08:14:20.419Z,998.17
2022-08-11T08:15:20.421Z,998.17
2022-08-11T08:16:20.400Z,998.19
2022-08-11T08:18:26.751Z,998.23
2022-08-11T08:19:20.432Z,998.17
2022-08-11T08:20:20.437Z,998.26
2022-08-11T08:21:20.463Z,998.24
2022-08-11T08:23:20.415Z,998.20
2022-08-11T08:24:20.417Z,998.20
2022-08-11T08:25:20.449Z,998.28
2022-08-11T08:26:20.435Z,998.18
2022-08-11T08:28:20.439Z,998.22
2022-08-11T08:29:20.431Z,998.28
2022-08-11T08:30:20.446Z,998.20
2022-08-11T08:31:20.456Z,998.28
2022-08-11T08:32:47.489Z,998.23
2022-08-11T08:33:47.474Z,998.24
2022-08-11T08:34:47.517Z,998.17
2022-08-11T08:35:55.606Z,998.16
2022-08-11T08:36:47.492Z,998.31
2022-08-11T08:37:47.911Z,998.15
2022-08-11T08:38:47.478Z,998.32
2022-08-11T08:39:47.529Z,998.21
2022-08-11T08:40:47.482Z,998.24
2022-08-11T08:41:47.479Z,998.21
2022-08-11T08:42:47.679Z,998.19
2022-08-11T08:43:49.131Z,998.16
2022-08-11T08:44:47.491Z,998.21
2022-08-11T08:45:47.482Z,998.19
2022-08-11T08:46:47.490Z,998.22
2022-08-11T08:47:49.909Z,998.24
2022-08-11T08:48:47.496Z,998.26
2022-08-11T08:49:47.496Z,998.23
2022-08-11T08:50:47.515Z,998.23
2022-08-11T08:51:56.992Z,998.16
2022-08-11T08:52:47.785Z,998.14
2022-08-11T08:53:52.433Z,998.18
2022-08-11T08:54:47.503Z,998.16
2022-08-11T08:55:47.520Z,998.15
2022-08-11T08:56:47.532Z,998.22
2022-08-11T08:57:47.498Z,998.13
2022-08-11T08:58:47.521Z,998.14
2022-08-11T08:59:49.524Z,998.13
2022-08-11T09:00:47.516Z,998.15
2022-08-11T09:01:47.561Z,998.17
2022-08-11T09:02:47.730Z,998.09
2022-08-11T09:04:06.605Z,998.18
2022-08-11T09:04:47.543Z,998.20
2022-08-11T09:05:47.534Z,998.16
2022-08-11T09:06:50.132Z,998.20
2022-08-11T09:07:47.534Z,998.24
2022-08-11T09:08:49.642Z,998.18
2022-08-11T09:09:47.670Z,998.18
2022-08-11T09:10:47.683Z,998.24
2022-08-11T09:11:47.704Z,998.16
2022-08-11T09:12:47.890Z,998.15
2022-08-11T09:14:05.120Z,998.10
2022-08-11T09:14:47.784Z,998.10
2022-08-11T09:15:47.717Z,998.04
2022-08-11T09:16:47.736Z,998.19
2022-08-11T09:17:47.735Z,998.08
2022-08-11T09:18:47.727Z,998.09
2022-08-11T09:19:54.126Z,998.15
2022-08-11T09:20:47.713Z,998.04
2022-08-11T09:21:49.579Z,998.04
2022-08-11T09:22:47.775Z,997.96
2022-08-11T09:24:07.723Z,997.99
2022-08-11T09:24:47.816Z,997.93
2022-08-11T09:25:47.803Z,997.99
2022-08-11T09:26:47.795Z,997.95
2022-08-11T09:27:50.422Z,997.84
2022-08-11T09:28:47.779Z,997.92
2022-08-11T09:29:47.818Z,997.91
2022-08-11T09:30:47.796Z,997.91
2022-08-11T09:31:47.789Z,997.92
2022-08-11T09:32:47.793Z,997.90
2022-08-11T09:33:47.813Z,997.86
2022-08-11T09:34:47.835Z,997.84
2022-08-11T09:35:47.844Z,997.92
2022-08-11T09:36:47.865Z,997.83
2022-08-11T09:37:55.239Z,997.88
2022-08-11T09:38:49.579Z,997.84
2022-08-11T09:39:47.953Z,997.83
2022-08-11T09:40:56.256Z,997.88
2022-08-11T09:42:00.925Z,997.86
2022-08-11T09:42:47.863Z,997.79
2022-08-11T09:43:47.880Z,997.83
2022-08-11T09:44:48.979Z,997.77
2022-08-11T09:45:47.895Z,997.78
2022-08-11T09:46:47.891Z,997.77
2022-08-11T09:47:47.903Z,997.81
2022-08-11T09:48:47.888Z,997.91
2022-08-11T09:49:47.893Z,997.92
2022-08-11T09:50:47.889Z,997.97
2022-08-11T09:52:02.239Z,997.90
2022-08-11T09:53:10.036Z,997.95
2022-08-11T09:54:02.876Z,997.95
2022-08-11T09:54:48.089Z,997.89
2022-08-11T09:55:47.889Z,997.89
2022-08-11T09:56:47.908Z,997.79
2022-08-11T09:57:47.899Z,997.88
2022-08-11T09:58:47.900Z,997.97
2022-08-11T09:59:47.928Z,997.89
2022-08-11T10:00:47.979Z,997.89
2022-08-11T10:01:47.976Z,997.95
2022-08-11T10:02:47.913Z,997.96
2022-08-11T10:03:47.906Z,997.96
2022-08-11T10:04:47.949Z,997.84
2022-08-11T10:05:47.957Z,997.78
2022-08-11T10:06:47.956Z,997.81
2022-08-11T10:07:47.957Z,997.81
2022-08-11T10:08:47.956Z,997.80
2022-08-11T10:09:47.959Z,997.81
2022-08-11T10:10:47.973Z,997.73
2022-08-11T10:11:57.729Z,997.86
2022-08-11T10:12:47.971Z,997.70
2022-08-11T10:14:30.985Z,997.69
2022-08-11T10:14:48.027Z,997.73
2022-08-11T10:16:14.701Z,997.71
2022-08-11T10:16:47.966Z,997.71
2022-08-11T10:17:47.977Z,997.72
2022-08-11T10:18:47.955Z,997.77
2022-08-11T10:19:48.907Z,997.75
2022-08-11T10:20:47.972Z,997.79
2022-08-11T10:21:47.975Z,997.80
2022-08-11T10:22:47.980Z,997.83
2022-08-11T10:24:01.382Z,997.89
2022-08-11T10:24:47.988Z,997.85
2022-08-11T10:25:47.969Z,997.82
2022-08-11T10:26:47.983Z,997.77
2022-08-11T10:28:33.155Z,997.77
2022-08-11T10:29:11.699Z,997.72
2022-08-11T10:29:49.870Z,997.66
2022-08-11T10:30:47.986Z,997.67
2022-08-11T10:31:57.799Z,997.72
2022-08-11T10:32:59.498Z,997.63
2022-08-11T10:33:57.592Z,997.65
2022-08-11T10:34:51.271Z,997.68
2022-08-11T10:35:48.046Z,997.72
2022-08-11T10:36:47.992Z,997.68
2022-08-11T10:38:07.828Z,997.71
2022-08-11T10:38:47.995Z,997.69
2022-08-11T10:39:48.042Z,997.66
2022-08-11T10:40:48.012Z,997.68
2022-08-11T10:42:06.711Z,997.64
2022-08-11T10:42:57.673Z,997.53
2022-08-11T10:44:01.392Z,997.65
2022-08-11T10:44:48.003Z,997.60
2022-08-11T10:45:48.132Z,997.63
2022-08-11T10:46:48.003Z,997.53
2022-08-11T10:47:49.778Z,997.60
2022-08-11T10:48:47.995Z,997.54
2022-08-11T10:49:48.006Z,997.47
2022-08-11T10:50:48.020Z,997.43
2022-08-11T10:51:51.543Z,997.46
2022-08-11T10:52:48.013Z,997.45
2022-08-11T10:53:48.013Z,997.41
2022-08-11T10:54:48.011Z,997.42
2022-08-11T10:55:48.077Z,997.43
2022-08-11T10:56:48.043Z,997.42
2022-08-11T10:58:04.952Z,997.33
2022-08-11T10:58:48.031Z,997.34
2022-08-11T10:59:48.022Z,997.16
2022-08-11T11:00:48.074Z,997.20
2022-08-11T11:01:48.046Z,997.27
2022-08-11T11:03:23.412Z,997.29
2022-08-11T11:03:48.040Z,997.30
2022-08-11T11:04:50.965Z,997.33
2022-08-11T11:06:12.726Z,997.44
2022-08-11T11:06:48.069Z,997.46
2022-08-11T11:07:48.039Z,997.34
2022-08-11T11:09:48.055Z,997.22
2022-08-11T11:10:48.036Z,997.23
2022-08-11T11:11:48.055Z,997.20
2022-08-11T11:12:48.064Z,997.17
2022-08-11T11:13:53.347Z,997.12
2022-08-11T11:14:49.811Z,997.05
2022-08-11T11:15:48.042Z,997.13
2022-08-11T11:16:48.059Z,997.13
2022-08-11T11:17:48.086Z,997.19
2022-08-11T11:18:48.072Z,997.14
2022-08-11T11:19:48.064Z,997.07
2022-08-11T11:20:48.089Z,997.11
2022-08-11T11:21:48.067Z,997.03
2022-08-11T11:22:48.089Z,997.07
2022-08-11T11:23:48.067Z,997.03
2022-08-11T11:24:48.073Z,997.05
2022-08-11T11:25:48.068Z,997.05
2022-08-11T11:26:48.069Z,997.09
2022-08-11T11:27:48.072Z,997.14
2022-08-11T11:28:48.066Z,997.18
2022-08-11T11:29:48.086Z,997.13
2022-08-11T11:30:48.076Z,997.07
2022-08-11T11:31:48.105Z,997.09
2022-08-11T11:32:49.864Z,996.96
2022-08-11T11:33:57.399Z,997.08
2022-08-11T11:34:53.606Z,996.96
2022-08-11T11:35:48.097Z,996.96
2022-08-11T11:36:48.123Z,996.95
2022-08-11T11:38:04.176Z,996.89
2022-08-11T11:38:48.119Z,996.91
2022-08-11T11:39:48.183Z,996.93
2022-08-11T11:40:48.097Z,996.79
2022-08-11T11:41:48.134Z,996.81
2022-08-11T11:42:48.114Z,996.83
2022-08-11T11:43:48.124Z,996.77
2022-08-11T11:44:48.129Z,996.73
2022-08-11T11:45:48.123Z,996.75
2022-08-11T11:46:48.139Z,996.69
2022-08-11T11:47:48.116Z,996.64
2022-08-11T11:48:48.136Z,996.69
2022-08-11T11:49:48.131Z,996.75
2022-08-11T11:50:48.140Z,996.74
2022-08-11T11:51:49.942Z,996.82
2022-08-11T11:52:48.177Z,996.81
2022-08-11T11:53:48.149Z,996.82
2022-08-11T11:54:48.180Z,996.73
2022-08-11T11:55:48.178Z,996.72
2022-08-11T11:56:48.187Z,996.74
2022-08-11T11:57:59.359Z,996.76
2022-08-11T11:58:48.210Z,996.69
2022-08-11T11:59:48.210Z,996.70
2022-08-11T12:00:48.195Z,996.71
2022-08-11T12:01:50.136Z,996.62
2022-08-11T12:02:48.261Z,996.59
2022-08-11T12:03:48.221Z,996.57
2022-08-11T12:04:48.201Z,996.67
2022-08-11T12:05:48.217Z,996.69
2022-08-11T12:06:48.227Z,996.68
2022-08-11T12:07:56.839Z,996.59
2022-08-11T12:08:48.220Z,996.63
2022-08-11T12:09:48.224Z,996.56
2022-08-11T12:10:48.267Z,996.65
2022-08-11T12:11:48.232Z,996.52
2022-08-11T12:12:48.216Z,996.44
2022-08-11T12:13:48.239Z,996.55
2022-08-11T12:14:48.219Z,996.51
2022-08-11T12:16:31.823Z,996.42
2022-08-11T12:16:48.249Z,996.47
2022-08-11T12:17:52.426Z,996.52
2022-08-11T12:18:48.233Z,996.55
2022-08-11T12:19:48.705Z,996.41
2022-08-11T12:20:48.241Z,996.38
2022-08-11T12:21:51.367Z,996.42
2022-08-11T12:22:48.236Z,996.33
2022-08-11T12:23:48.245Z,996.34
2022-08-11T12:24:48.246Z,996.37
2022-08-11T12:25:50.063Z,996.35
2022-08-11T12:27:15.325Z,996.29
2022-08-11T12:27:48.251Z,996.30
2022-08-11T12:28:48.241Z,996.29
2022-08-11T12:29:54.543Z,996.31
2022-08-11T12:30:50.751Z,996.37
2022-08-11T12:31:48.253Z,996.32
2022-08-11T12:32:48.269Z,996.18
2022-08-11T12:33:48.266Z,996.29
2022-08-11T12:34:48.261Z,996.23
2022-08-11T12:36:01.213Z,996.25
2022-08-11T12:36:48.269Z,996.32
2022-08-11T12:37:48.270Z,996.19
2022-08-11T12:38:51.310Z,996.25
2022-08-11T12:40:16.002Z,996.15
2022-08-11T12:41:11.921Z,996.14
2022-08-11T12:41:48.326Z,996.13
2022-08-11T12:42:48.311Z,996.18
2022-08-11T12:43:57.217Z,996.19
2022-08-11T12:44:48.275Z,996.12
2022-08-11T12:45:48.270Z,996.11
2022-08-11T12:46:48.286Z,996.09
2022-08-11T12:48:07.664Z,996.06
2022-08-11T12:49:00.374Z,996.10
2022-08-11T12:49:48.281Z,996.12
2022-08-11T12:50:48.282Z,996.24
2022-08-11T12:52:06.743Z,996.09
2022-08-11T12:52:48.424Z,996.17
2022-08-11T12:53:48.290Z,996.09
2022-08-11T12:54:48.285Z,996.10
2022-08-11T12:56:03.337Z,996.08
2022-08-11T12:56:48.279Z,996.05
2022-08-11T12:57:48.454Z,996.09
2022-08-11T12:58:48.298Z,996.10
2022-08-11T12:59:48.300Z,996.15
2022-08-11T13:00:48.392Z,996.12
2022-08-11T13:01:48.340Z,996.04
2022-08-11T13:02:48.286Z,996.02
2022-08-11T13:03:52.369Z,995.95
2022-08-11T13:04:50.075Z,995.99
2022-08-11T13:05:48.297Z,995.90
2022-08-11T13:06:48.327Z,996.00
2022-08-11T13:07:50.923Z,995.97
2022-08-11T13:08:48.322Z,995.93
2022-08-11T13:09:48.330Z,995.99
2022-08-11T13:10:48.316Z,996.00
2022-08-11T13:11:56.065Z,996.08
2022-08-11T13:12:48.327Z,996.01
2022-08-11T13:13:55.085Z,995.97
2022-08-11T13:14:48.327Z,995.95
2022-08-11T13:15:48.304Z,995.89
2022-08-11T13:16:48.344Z,995.87
2022-08-11T13:17:48.347Z,995.73
2022-08-11T13:18:48.333Z,995.90
2022-08-11T13:19:49.844Z,995.96
2022-08-11T13:20:48.330Z,995.84
2022-08-11T13:21:48.359Z,995.88
2022-08-11T13:22:48.352Z,995.83
2022-08-11T13:23:59.510Z,995.81
2022-08-11T13:24:48.338Z,995.80
2022-08-11T13:25:48.332Z,995.74
2022-08-11T13:26:50.330Z,995.76
2022-08-11T13:27:48.372Z,995.83
2022-08-11T13:28:48.340Z,995.88
2022-08-11T13:29:48.378Z,995.86
2022-08-11T13:30:48.342Z,995.75
2022-08-11T13:31:48.376Z,995.76
2022-08-11T13:32:48.355Z,995.80
2022-08-11T13:33:48.356Z,995.79
2022-08-11T13:34:48.370Z,995.76
2022-08-11T13:35:48.362Z,995.68
2022-08-11T13:36:48.380Z,995.75